Time;durP1;ratioP1;P1;durP2;ratioP2;P2;SDS_P1;SDS_P2;PMS_P1;PMS_P2;Temp;Humidity;BMP_temperature;BMP_pressure;BME280_temperature;BME280_humidity;BME280_pressure;Samples;Min_cycle;Max_cycle;Signal;HPM_P1;HPM_P2
2024/01/25 00:03:21;;;;;;;;;;;;;;;21.17;43.31;96612.66;10472859;28;2964;-77
2024/01/25 00:08:22;;;;;;;;;;;;;;;21.30;42.98;96612.19;10470256;28;2999;-77
2024/01/25 00:13:22;;;;;;;;;;;;;;;21.20;44.66;96612.16;10475868;28;2948;-77
2024/01/25 00:18:22;;;;;;;;;;;;;;;21.18;43.49;96614.25;10476704;28;2917;-77
2024/01/25 00:23:23;;;;;;;;;;;;;;;21.17;45.02;96616.09;10470320;28;3036;-77
2024/01/25 00:28:23;;;;;;;;;;;;;;;21.15;44.06;96622.66;10475962;28;2898;-77
2024/01/25 00:33:24;;;;;;;;;;;;;;;21.14;43.51;96621.09;10470352;28;2919;-77
2024/01/25 00:38:24;;;;;;;;;;;;;;;21.20;45.94;96617.44;10476033;28;3102;-79
2024/01/25 00:43:24;;;;;;;;;;;;;;;21.18;45.74;96611.63;10453662;28;3031;-77
2024/01/25 00:48:25;;;;;;;;;;;;;;;21.17;45.09;96613.47;10472223;28;2837;-77
2024/01/25 00:53:25;;;;;;;;;;;;;;;21.16;43.68;96595.28;10478427;28;2965;-75
2024/01/25 00:58:25;;;;;;;;;;;;;;;21.14;42.89;96613.19;10471402;28;2880;-77
2024/01/25 01:03:25;;;;;;;;;;;;;;;21.15;43.48;96617.41;10473229;28;3011;-76
2024/01/25 01:08:26;;;;;;;;;;;;;;;21.25;45.85;96620.06;10471910;28;2978;-77
2024/01/25 01:13:26;;;;;;;;;;;;;;;21.19;45.54;96631.66;10472130;28;2957;-77
2024/01/25 01:18:26;;;;;;;;;;;;;;;21.17;44.19;96660.91;10464596;28;2884;-77
2024/01/25 01:23:27;;;;;;;;;;;;;;;21.15;43.72;96660.38;10471244;28;2934;-75
2024/01/25 01:28:27;;;;;;;;;;;;;;;21.15;43.61;96649.03;10468839;28;2965;-76
2024/01/25 01:33:27;;;;;;;;;;;;;;;21.22;43.87;96642.50;10469315;28;2890;-77
2024/01/25 01:38:27;;;;;;;;;;;;;;;21.28;44.61;96652.03;10468826;28;3068;-76
2024/01/25 01:43:28;;;;;;;;;;;;;;;21.18;44.74;96649.34;10465468;28;2935;-75
2024/01/25 01:48:28;;;;;;;;;;;;;;;21.12;43.16;96647.72;10470390;28;3033;-77
2024/01/25 01:53:28;;;;;;;;;;;;;;;21.16;44.34;96640.88;10470897;28;2980;-76
2024/01/25 01:58:28;;;;;;;;;;;;;;;21.24;45.09;96642.25;10471159;28;2929;-76
2024/01/25 02:03:29;;;;;;;;;;;;;;;21.26;45.77;96637.50;10467210;28;2894;-76
2024/01/25 02:08:29;;;;;;;;;;;;;;;21.13;43.82;96643.22;10467777;28;2969;-77
2024/01/25 02:13:29;;;;;;;;;;;;;;;21.08;43.79;96627.41;10481384;28;2966;-77
2024/01/25 02:18:30;;;;;;;;;;;;;;;21.14;45.74;96621.91;10470453;28;2961;-77
2024/01/25 02:23:30;;;;;;;;;;;;;;;21.12;46.33;96625.84;10471679;28;2921;-77
2024/01/25 02:28:31;;;;;;;;;;;;;;;21.23;45.86;96627.44;10468218;28;2829;-76
2024/01/25 02:33:31;;;;;;;;;;;;;;;21.08;43.93;96621.06;10467695;28;3218;-77
2024/01/25 02:38:31;;;;;;;;;;;;;;;21.10;44.63;96620.81;10465749;28;2964;-76
2024/01/25 02:43:31;;;;;;;;;;;;;;;21.21;45.35;96617.16;10467912;28;3006;-77
2024/01/25 02:48:32;;;;;;;;;;;;;;;21.16;46.15;96616.34;10465661;28;2870;-77
2024/01/25 02:53:32;;;;;;;;;;;;;;;21.12;45.65;96626.63;10458738;28;3043;-77
2024/01/25 02:58:32;;;;;;;;;;;;;;;21.08;44.21;96624.75;10470589;28;3072;-76
2024/01/25 03:03:32;;;;;;;;;;;;;;;21.06;43.25;96614.47;10465141;28;3115;-77
2024/01/25 03:08:33;;;;;;;;;;;;;;;21.17;46.10;96616.09;10468874;28;3013;-77
2024/01/25 03:13:34;;;;;;;;;;;;;;;21.24;45.77;96621.16;10465269;28;3046;-77
2024/01/25 03:18:34;;;;;;;;;;;;;;;21.18;46.55;96603.72;10445808;28;3004;-75
2024/01/25 03:23:34;;;;;;;;;;;;;;;21.10;44.64;96591.81;10471284;28;2898;-77
2024/01/25 03:28:35;;;;;;;;;;;;;;;21.06;43.72;96580.97;10472319;28;2953;-76
2024/01/25 03:33:36;;;;;;;;;;;;;;;21.24;44.85;96581.59;10476361;28;2977;-77
2024/01/25 03:38:36;;;;;;;;;;;;;;;21.17;44.24;96586.28;10475555;28;2993;-77
2024/01/25 03:43:36;;;;;;;;;;;;;;;21.04;44.20;96584.94;10472829;28;2883;-77
2024/01/25 03:48:36;;;;;;;;;;;;;;;21.08;43.91;96591.28;10479779;28;2906;-74
2024/01/25 03:53:37;;;;;;;;;;;;;;;21.11;45.43;96597.88;10471649;28;2993;-77
2024/01/25 03:58:37;;;;;;;;;;;;;;;21.05;45.68;96595.22;10474663;28;3009;-75
2024/01/25 04:03:38;;;;;;;;;;;;;;;21.03;44.96;96586.78;10472986;28;2930;-76
2024/01/25 04:08:38;;;;;;;;;;;;;;;21.02;43.55;96601.00;10475149;28;2953;-74
2024/01/25 04:13:40;;;;;;;;;;;;;;;21.06;44.49;96606.56;10472424;28;3011;-77
2024/01/25 04:18:40;;;;;;;;;;;;;;;21.11;45.24;96608.41;10470635;28;3123;-74
2024/01/25 04:23:40;;;;;;;;;;;;;;;21.02;45.21;96619.44;10467877;28;3105;-76
2024/01/25 04:28:40;;;;;;;;;;;;;;;21.02;44.70;96627.34;10465659;28;2949;-74
2024/01/25 04:33:41;;;;;;;;;;;;;;;21.02;44.42;96631.81;10466620;28;2928;-75
2024/01/25 04:38:41;;;;;;;;;;;;;;;21.03;43.25;96633.41;10466317;28;2961;-76
2024/01/25 04:43:41;;;;;;;;;;;;;;;21.06;44.39;96638.19;10472341;28;2856;-77
2024/01/25 04:48:42;;;;;;;;;;;;;;;21.08;43.71;96647.41;10504738;28;3108;-77
2024/01/25 04:53:42;;;;;;;;;;;;;;;21.05;44.55;96647.94;10472744;28;3382;-76
2024/01/25 04:58:42;;;;;;;;;;;;;;;21.02;44.29;96655.53;10470225;28;2965;-76
2024/01/25 05:03:42;;;;;;;;;;;;;;;21.05;43.90;96662.97;10468733;28;3057;-76
2024/01/25 05:08:43;;;;;;;;;;;;;;;21.08;44.18;96661.66;10469423;28;2938;-75
2024/01/25 05:13:43;;;;;;;;;;;;;;;21.07;44.87;96668.78;10466609;28;2961;-75
2024/01/25 05:18:44;;;;;;;;;;;;;;;21.03;45.13;96678.22;10428414;28;1061801;-76
2024/01/25 05:23:44;;;;;;;;;;;;;;;21.06;45.56;96675.09;10472942;28;2946;-76
2024/01/25 05:28:44;;;;;;;;;;;;;;;21.00;43.96;96682.13;10465850;28;2929;-75
2024/01/25 05:33:45;;;;;;;;;;;;;;;21.01;42.73;96683.75;10461191;28;2976;-75
2024/01/25 05:38:45;;;;;;;;;;;;;;;21.05;44.62;96684.84;10471782;28;2937;-76
2024/01/25 05:43:45;;;;;;;;;;;;;;;21.06;44.95;96694.34;10467190;28;2985;-76
2024/01/25 05:48:45;;;;;;;;;;;;;;;21.08;44.17;96693.28;10460328;28;3014;-75
2024/01/25 05:53:46;;;;;;;;;;;;;;;21.06;44.61;96707.50;10468020;28;3023;-76
2024/01/25 05:58:46;;;;;;;;;;;;;;;21.01;43.82;96710.09;10465403;28;3091;-76
2024/01/25 06:03:46;;;;;;;;;;;;;;;20.99;43.43;96706.91;10467432;28;3056;-76
2024/01/25 06:08:46;;;;;;;;;;;;;;;21.10;44.57;96728.09;10463238;28;3111;-77
2024/01/25 06:13:47;;;;;;;;;;;;;;;21.10;46.23;96739.47;10465178;28;3008;-77
2024/01/25 06:18:47;;;;;;;;;;;;;;;21.03;45.45;96737.03;10465271;28;2898;-76
2024/01/25 06:23:48;;;;;;;;;;;;;;;21.07;45.28;96745.22;10466742;28;2953;-75
2024/01/25 06:28:48;;;;;;;;;;;;;;;21.03;44.80;96773.94;10466007;28;2875;-76
2024/01/25 06:33:50;;;;;;;;;;;;;;;21.01;43.93;96778.63;10462691;28;2993;-73
2024/01/25 06:38:50;;;;;;;;;;;;;;;21.04;43.08;96786.06;10462552;28;2896;-72
2024/01/25 06:43:50;;;;;;;;;;;;;;;21.10;46.86;96778.19;10471083;28;2981;-66
2024/01/25 06:48:51;;;;;;;;;;;;;;;21.23;46.06;96796.22;10470772;28;3103;-65
2024/01/25 06:53:51;;;;;;;;;;;;;;;21.17;46.13;96805.94;10471015;28;2922;-76
2024/01/25 06:58:51;;;;;;;;;;;;;;;21.06;45.26;96812.97;10465268;28;2842;-65
2024/01/25 07:03:52;;;;;;;;;;;;;;;20.99;44.83;96812.34;10462651;28;2947;-73
2024/01/25 07:08:53;;;;;;;;;;;;;;;20.98;44.33;96823.13;10465249;28;3004;-72
2024/01/25 07:13:53;;;;;;;;;;;;;;;21.02;44.35;96816.34;10464560;28;2921;-74
2024/01/25 07:18:54;;;;;;;;;;;;;;;21.14;45.54;96832.00;10460694;28;2941;-74
2024/01/25 07:23:54;;;;;;;;;;;;;;;21.06;43.62;96828.78;10461684;28;3082;-73
2024/01/25 07:28:57;;;;;;;;;;;;;;;21.02;44.21;96840.88;10464477;28;2993;-74
2024/01/25 07:33:58;;;;;;;;;;;;;;;21.05;43.43;96843.03;10462349;28;2970;-75
2024/01/25 07:38:58;;;;;;;;;;;;;;;21.17;45.99;96852.59;10460001;28;2972;-74
2024/01/25 07:43:58;;;;;;;;;;;;;;;21.30;47.42;96865.38;10459752;28;2944;-74
2024/01/25 07:48:58;;;;;;;;;;;;;;;21.12;44.68;96873.66;10463518;28;3227;-73
2024/01/25 07:53:59;;;;;;;;;;;;;;;21.03;45.17;96874.09;10463407;28;3056;-74
2024/01/25 07:59:00;;;;;;;;;;;;;;;21.19;46.27;96874.22;10463118;28;2945;-74
2024/01/25 08:04:00;;;;;;;;;;;;;;;21.28;45.88;96883.28;10456904;28;2887;-73
2024/01/25 08:09:00;;;;;;;;;;;;;;;21.16;44.86;96870.28;10499757;28;2908;-73
2024/01/25 08:14:00;;;;;;;;;;;;;;;21.01;45.57;96860.34;10481626;28;2897;-74
2024/01/25 08:19:01;;;;;;;;;;;;;;;21.00;44.48;96884.31;10477973;28;2914;-73
2024/01/25 08:24:01;;;;;;;;;;;;;;;21.23;43.57;96857.66;10468538;28;2902;-73
2024/01/25 08:29:01;;;;;;;;;;;;;;;21.28;45.68;96865.63;10467907;28;2897;-74
2024/01/25 08:34:02;;;;;;;;;;;;;;;21.31;46.61;96866.97;10468151;28;2989;-74
2024/01/25 08:39:03;;;;;;;;;;;;;;;21.12;45.03;96848.09;10472168;28;3079;-74
2024/01/25 08:44:04;;;;;;;;;;;;;;;21.00;44.40;96881.66;10465162;28;2920;-74
2024/01/25 08:49:08;;;;;;;;;;;;;;;21.01;43.83;96891.97;10468720;28;3389;-75
2024/01/25 08:54:08;;;;;;;;;;;;;;;21.31;45.53;96893.34;10457993;28;2973;-75
2024/01/25 08:59:09;;;;;;;;;;;;;;;21.30;46.56;96907.56;10464154;28;3015;-75
2024/01/25 09:04:09;;;;;;;;;;;;;;;21.33;45.45;96907.09;10476926;28;2866;-75
2024/01/25 09:09:10;;;;;;;;;;;;;;;21.07;45.48;96898.13;10459720;28;3210;-75
2024/01/25 09:14:11;;;;;;;;;;;;;;;21.00;44.67;96908.81;10457318;28;3103;-74
2024/01/25 09:19:11;;;;;;;;;;;;;;;21.20;43.88;96916.19;10458138;28;3087;-73
2024/01/25 09:24:11;;;;;;;;;;;;;;;21.32;46.00;96926.56;10469656;28;2867;-74
2024/01/25 09:29:11;;;;;;;;;;;;;;;21.14;44.74;96924.28;10468964;28;2875;-73
2024/01/25 09:34:12;;;;;;;;;;;;;;;21.10;44.84;96931.13;10469759;28;3439;-73
2024/01/25 09:39:12;;;;;;;;;;;;;;;21.08;44.57;96934.00;10467467;28;2967;-74
2024/01/25 09:44:12;;;;;;;;;;;;;;;21.16;44.99;96932.75;10468386;28;2845;-74
2024/01/25 09:49:12;;;;;;;;;;;;;;;21.31;45.81;96932.91;10462151;28;2844;-74
2024/01/25 09:54:13;;;;;;;;;;;;;;;21.15;44.77;96926.69;10464200;28;2993;-74
2024/01/25 09:59:13;;;;;;;;;;;;;;;21.28;45.96;96931.56;10449800;28;3087;-74
2024/01/25 10:04:14;;;;;;;;;;;;;;;21.40;48.37;96941.94;10473494;28;2910;-74
2024/01/25 10:09:14;;;;;;;;;;;;;;;21.27;46.43;96945.00;10460434;28;3119;-73
2024/01/25 10:14:14;;;;;;;;;;;;;;;21.23;45.95;96951.78;10461691;28;2956;-73
2024/01/25 10:19:17;;;;;;;;;;;;;;;21.18;44.64;96946.47;10455042;28;3055;-73
2024/01/25 10:24:17;;;;;;;;;;;;;;;21.38;46.13;96942.19;10460713;28;2842;-72
2024/01/25 10:29:18;;;;;;;;;;;;;;;21.20;45.46;96926.75;10456987;28;2890;-75
2024/01/25 10:34:18;;;;;;;;;;;;;;;21.23;45.93;96922.78;10454236;28;3014;-74
2024/01/25 10:39:18;;;;;;;;;;;;;;;21.18;45.26;96915.66;10487721;28;2944;-75
2024/01/25 10:44:21;;;;;;;;;;;;;;;21.33;44.80;96910.50;10457199;28;3101;-74
2024/01/25 10:49:22;;;;;;;;;;;;;;;21.23;45.93;96918.31;10457804;28;3122;-74
2024/01/25 10:54:22;;;;;;;;;;;;;;;21.08;44.66;96916.31;10467800;28;2905;-74
2024/01/25 10:59:25;;;;;;;;;;;;;;;21.19;44.06;96897.97;10446781;28;3304;-75
2024/01/25 11:04:26;;;;;;;;;;;;;;;21.23;44.19;96896.41;10466351;28;3066;-75
2024/01/25 11:09:26;;;;;;;;;;;;;;;21.31;45.03;96875.66;10468554;28;3144;-75
2024/01/25 11:14:26;;;;;;;;;;;;;;;21.13;44.68;96876.03;10458448;28;2997;-74
2024/01/25 11:19:26;;;;;;;;;;;;;;;21.11;43.96;96872.03;10461478;28;2942;-74
2024/01/25 11:24:27;;;;;;;;;;;;;;;21.12;43.24;96865.75;10430295;28;3210;-67
2024/01/25 11:29:27;;;;;;;;;;;;;;;21.24;46.01;96863.75;10498724;28;3422;-69
2024/01/25 11:34:27;;;;;;;;;;;;;;;21.25;46.38;96852.94;10464208;28;2988;-71
2024/01/25 11:39:28;;;;;;;;;;;;;;;21.24;43.90;96838.19;10462999;28;2961;-71
2024/01/25 11:44:28;;;;;;;;;;;;;;;21.25;44.40;96831.03;10473915;28;2980;-70
2024/01/25 11:49:28;;;;;;;;;;;;;;;21.26;43.85;96830.00;10477258;28;3113;-70
2024/01/25 11:54:31;;;;;;;;;;;;;;;21.26;43.50;96825.53;10470769;28;2985;-68
2024/01/25 11:59:31;;;;;;;;;;;;;;;21.30;43.73;96810.78;10470049;28;3067;-74
2024/01/25 12:04:32;;;;;;;;;;;;;;;21.31;42.96;96809.72;10456257;28;2945;-82
2024/01/25 12:09:32;;;;;;;;;;;;;;;21.27;44.51;96808.66;10472035;28;2925;-77
2024/01/25 12:14:32;;;;;;;;;;;;;;;21.30;43.86;96810.00;10475625;28;3039;-78
2024/01/25 12:19:32;;;;;;;;;;;;;;;21.32;43.87;96789.44;10470989;28;3069;-82
2024/01/25 12:24:33;;;;;;;;;;;;;;;21.34;43.44;96803.16;10467930;28;3038;-77
2024/01/25 12:29:33;;;;;;;;;;;;;;;21.35;43.14;96804.78;10465183;28;3072;-74
2024/01/25 12:34:33;;;;;;;;;;;;;;;21.35;42.87;96810.81;10466287;28;3025;-68
2024/01/25 12:39:34;;;;;;;;;;;;;;;21.34;43.72;96797.88;10468082;28;3096;-68
2024/01/25 12:44:34;;;;;;;;;;;;;;;21.35;42.98;96786.31;10503399;27;2966;-69
2024/01/25 12:49:34;;;;;;;;;;;;;;;21.36;43.34;96785.25;10464653;28;2941;-67
2024/01/25 12:54:35;;;;;;;;;;;;;;;21.37;42.99;96787.63;10467765;28;2825;-68
2024/01/25 12:59:35;;;;;;;;;;;;;;;21.39;42.74;96790.03;10464702;28;2869;-69
2024/01/25 13:04:35;;;;;;;;;;;;;;;21.40;42.49;96791.59;10464939;28;2778;-69
2024/01/25 13:09:37;;;;;;;;;;;;;;;21.41;42.61;96782.66;10468124;28;2878;-67
2024/01/25 13:14:37;;;;;;;;;;;;;;;21.42;44.08;96773.69;10464181;28;2845;-68
2024/01/25 13:19:37;;;;;;;;;;;;;;;21.42;46.88;96773.69;10465609;28;2790;-67
2024/01/25 13:24:40;;;;;;;;;;;;;;;21.44;44.07;96774.22;10500023;28;2857;-70
2024/01/25 13:29:40;;;;;;;;;;;;;;;21.45;43.94;96765.28;10464293;28;2865;-68
2024/01/25 13:34:43;;;;;;;;;;;;;;;21.44;44.48;96767.09;10466956;28;3016;-68
2024/01/25 13:39:43;;;;;;;;;;;;;;;21.46;43.40;96774.75;10462422;28;2968;-68
2024/01/25 13:44:44;;;;;;;;;;;;;;;21.46;43.65;96761.56;10467182;28;3006;-67
2024/01/25 13:49:44;;;;;;;;;;;;;;;21.50;42.11;96749.44;10464455;28;3142;-67
2024/01/25 13:54:45;;;;;;;;;;;;;;;21.52;43.01;96742.06;10493897;28;2961;-67
2024/01/25 13:59:45;;;;;;;;;;;;;;;21.52;44.23;96742.06;10463737;28;2914;-68
2024/01/25 14:04:46;;;;;;;;;;;;;;;21.54;43.87;96739.97;10460661;28;3048;-66
2024/01/25 14:09:46;;;;;;;;;;;;;;;21.55;43.59;96734.47;10460735;28;2912;-67
2024/01/25 14:14:46;;;;;;;;;;;;;;;21.58;43.86;96722.59;10492626;28;3000;-66
2024/01/25 14:19:47;;;;;;;;;;;;;;;21.59;43.78;96724.19;10461529;28;2933;-69
2024/01/25 14:24:47;;;;;;;;;;;;;;;21.60;44.69;96721.28;10492603;28;2993;-67
2024/01/25 14:29:47;;;;;;;;;;;;;;;21.62;44.67;96727.09;10459974;28;2843;-68
2024/01/25 14:34:48;;;;;;;;;;;;;;;21.62;45.84;96721.03;10466415;28;2986;-67
2024/01/25 14:39:48;;;;;;;;;;;;;;;21.62;47.07;96708.63;10460764;28;2921;-67
2024/01/25 14:44:48;;;;;;;;;;;;;;;21.61;45.32;96709.69;10466526;28;2996;-66
2024/01/25 14:49:50;;;;;;;;;;;;;;;21.62;45.11;96710.47;10463754;28;2962;-68
2024/01/25 14:54:51;;;;;;;;;;;;;;;21.59;44.83;96716.28;10462074;28;2860;-67
2024/01/25 14:59:51;;;;;;;;;;;;;;;21.61;44.77;96707.06;10469330;28;2960;-67
2024/01/25 15:04:51;;;;;;;;;;;;;;;21.64;45.74;96705.72;10495071;28;3076;-67
2024/01/25 15:09:51;;;;;;;;;;;;;;;21.66;44.67;96700.97;10467018;28;2973;-67
2024/01/25 15:14:52;;;;;;;;;;;;;;;21.67;45.02;96705.22;10456951;28;3111;-69
2024/01/25 15:19:52;;;;;;;;;;;;;;;21.69;44.23;96703.13;10506045;28;2945;-69
2024/01/25 15:24:52;;;;;;;;;;;;;;;21.70;44.83;96696.81;10472456;28;2988;-68
2024/01/25 15:29:53;;;;;;;;;;;;;;;21.77;44.17;96697.34;10475435;28;2882;-65
2024/01/25 15:34:53;;;;;;;;;;;;;;;21.79;44.81;96703.97;10471645;28;2971;-66
2024/01/25 15:39:53;;;;;;;;;;;;;;;21.86;44.37;96695.84;10476583;28;3015;-65
2024/01/25 15:44:53;;;;;;;;;;;;;;;21.87;44.45;96692.13;10476222;28;2926;-67
2024/01/25 15:49:54;;;;;;;;;;;;;;;21.93;44.08;96695.59;10473144;28;2962;-67
2024/01/25 15:54:54;;;;;;;;;;;;;;;21.93;43.78;96692.97;10474181;28;2905;-68
2024/01/25 15:59:54;;;;;;;;;;;;;;;21.92;44.83;96686.88;10480006;28;3210;-68
2024/01/25 16:04:55;;;;;;;;;;;;;;;21.98;48.65;96688.50;10482921;28;2217;-67
2024/01/25 16:09:55;;;;;;;;;;;;;;;21.97;46.39;96681.59;10487444;28;1910;-65
2024/01/25 16:14:56;;;;;;;;;;;;;;;21.92;44.93;96678.97;10490632;28;1666;-65
2024/01/25 16:19:56;;;;;;;;;;;;;;;21.91;45.13;96680.00;10488566;28;2176;-65
2024/01/25 16:24:57;;;;;;;;;;;;;;;21.92;44.70;96678.97;10512362;28;2468;-65
2024/01/25 16:29:57;;;;;;;;;;;;;;;22.02;42.78;96678.19;10481818;28;1926;-66
2024/01/25 16:34:57;;;;;;;;;;;;;;;21.95;47.34;96694.28;10495510;28;1746;-67
2024/01/25 16:39:58;;;;;;;;;;;;;;;22.01;46.21;96693.22;10492922;28;1458;-67
2024/01/25 16:44:58;;;;;;;;;;;;;;;21.96;46.17;96687.16;10485233;28;1468;-66
2024/01/25 16:49:58;;;;;;;;;;;;;;;21.94;45.36;96690.06;10485701;28;1906;-66
2024/01/25 16:54:59;;;;;;;;;;;;;;;21.91;44.05;96698.47;10486910;28;2292;-67
2024/01/25 16:59:59;;;;;;;;;;;;;;;21.88;43.88;96706.94;10490085;28;1510;-66
2024/01/25 17:04:59;;;;;;;;;;;;;;;21.89;43.95;96697.94;10482864;28;1621;-66
2024/01/25 17:09:59;;;;;;;;;;;;;;;21.84;42.66;96701.34;10480872;28;1902;-68
2024/01/25 17:15:00;;;;;;;;;;;;;;;21.85;44.06;96694.25;10484254;28;1520;-67
2024/01/25 17:20:00;;;;;;;;;;;;;;;21.86;47.91;96712.44;10513288;28;1454;-66
2024/01/25 17:25:00;;;;;;;;;;;;;;;21.86;45.08;96701.88;10486423;28;2398;-65
2024/01/25 17:30:00;;;;;;;;;;;;;;;21.81;44.78;96709.81;10487427;28;1941;-65
2024/01/25 17:35:01;;;;;;;;;;;;;;;21.76;43.96;96696.53;10483656;28;1529;-66
2024/01/25 17:40:01;;;;;;;;;;;;;;;21.79;44.49;96700.53;10482954;28;2996;-67
2024/01/25 17:45:01;;;;;;;;;;;;;;;21.78;43.09;96706.88;10484621;28;3056;-71
2024/01/25 17:50:01;;;;;;;;;;;;;;;21.77;42.99;96708.72;10484119;28;2884;-66
2024/01/25 17:55:02;;;;;;;;;;;;;;;21.80;43.45;96710.03;10481681;28;2201;-66
2024/01/25 18:00:03;;;;;;;;;;;;;;;21.75;44.02;96705.53;10481773;28;1579;-66
2024/01/25 18:05:03;;;;;;;;;;;;;;;21.78;42.89;96714.78;10495547;28;2013;-66
2024/01/25 18:10:04;;;;;;;;;;;;;;;21.77;42.45;96714.00;10485034;28;1914;-66
2024/01/25 18:15:05;;;;;;;;;;;;;;;21.80;42.48;96729.28;10481897;28;1699;-67
2024/01/25 18:20:05;;;;;;;;;;;;;;;21.79;42.93;96717.16;10484220;28;2496;-66
2024/01/25 18:25:06;;;;;;;;;;;;;;;21.83;42.85;96725.38;10507788;27;1594;-67
2024/01/25 18:30:07;;;;;;;;;;;;;;;21.80;43.38;96717.97;10480653;28;1909;-67
2024/01/25 18:35:08;;;;;;;;;;;;;;;21.79;44.34;96716.34;10480791;28;2796;-67
2024/01/25 18:40:08;;;;;;;;;;;;;;;21.80;47.36;96707.41;10484747;28;3047;-67
2024/01/25 18:45:08;;;;;;;;;;;;;;;21.86;45.73;96716.97;10488124;28;1578;-69
2024/01/25 18:50:09;;;;;;;;;;;;;;;21.78;48.63;96714.78;10480974;28;1972;-68
2024/01/25 18:55:09;;;;;;;;;;;;;;;21.74;45.83;96708.44;10482119;28;2223;-67
2024/01/25 19:00:10;;;;;;;;;;;;;;;21.71;43.28;96698.38;10479478;28;2244;-68
2024/01/25 19:05:10;;;;;;;;;;;;;;;21.60;47.34;96676.44;10481184;28;1614;-70
2024/01/25 19:10:10;;;;;;;;;;;;;;;21.62;45.88;96673.53;10474799;28;2914;-68
2024/01/25 19:15:13;;;;;;;;;;;;;;;21.58;44.86;96681.16;10476462;28;2755;-67
2024/01/25 19:20:13;;;;;;;;;;;;;;;21.59;43.69;96682.78;10474842;28;2173;-78
2024/01/25 19:25:13;;;;;;;;;;;;;;;21.59;43.86;96685.41;10485862;28;1632;-74
2024/01/25 19:30:15;;;;;;;;;;;;;;;21.64;45.36;96679.34;10477483;28;2281;-70
2024/01/25 19:35:15;;;;;;;;;;;;;;;21.59;46.90;96674.06;10485211;28;1482;-70
2024/01/25 19:40:16;;;;;;;;;;;;;;;21.63;44.90;96665.38;10478868;28;1592;-70
2024/01/25 19:45:16;;;;;;;;;;;;;;;21.69;44.46;96658.25;10478461;28;2290;-70
2024/01/25 19:50:17;;;;;;;;;;;;;;;21.66;44.64;96661.41;10479631;28;1976;-70
2024/01/25 19:55:17;;;;;;;;;;;;;;;21.70;43.62;96665.91;10474920;28;1680;-69
2024/01/25 20:00:18;;;;;;;;;;;;;;;21.72;43.84;96673.59;10478661;28;1651;-73
2024/01/25 20:05:18;;;;;;;;;;;;;;;21.72;43.96;96673.59;10477023;28;1461;-69
2024/01/25 20:10:19;;;;;;;;;;;;;;;21.75;44.11;96678.34;10486918;28;2237;-70
2024/01/25 20:15:19;;;;;;;;;;;;;;;21.86;43.11;96672.84;10486659;28;1706;-64
2024/01/25 20:20:19;;;;;;;;;;;;;;;21.88;44.11;96672.63;10478727;28;1505;-65
2024/01/25 20:25:20;;;;;;;;;;;;;;;21.97;44.04;96680.84;10482634;28;2397;-64
2024/01/25 20:30:21;;;;;;;;;;;;;;;22.01;45.40;96681.91;10483410;28;1898;-66
2024/01/25 20:35:21;;;;;;;;;;;;;;;22.01;46.10;96682.66;10484725;28;1422;-68
2024/01/25 20:40:21;;;;;;;;;;;;;;;21.94;45.19;96679.50;10482988;28;2996;-66
2024/01/25 20:45:22;;;;;;;;;;;;;;;21.96;45.04;96682.66;10485905;28;1580;-67
2024/01/25 20:50:22;;;;;;;;;;;;;;;21.95;45.71;96689.00;10484606;28;1905;-68
2024/01/25 20:55:22;;;;;;;;;;;;;;;21.90;43.22;96686.34;10482154;28;1548;-68
2024/01/25 21:00:23;;;;;;;;;;;;;;;22.08;46.17;96691.16;10487922;28;1777;-67
2024/01/25 21:05:23;;;;;;;;;;;;;;;22.02;45.85;96683.47;10484007;28;1470;-68
2024/01/25 21:10:23;;;;;;;;;;;;;;;21.98;44.77;96677.13;10485328;28;1975;-68
2024/01/25 21:15:24;;;;;;;;;;;;;;;21.99;45.22;96673.44;10486297;28;2335;-68
2024/01/25 21:20:24;;;;;;;;;;;;;;;21.97;43.89;96654.44;10483989;28;1541;-68
2024/01/25 21:25:24;;;;;;;;;;;;;;;21.96;44.95;96666.03;10478853;28;1592;-68
2024/01/25 21:30:25;;;;;;;;;;;;;;;22.07;44.88;96662.38;10467032;28;2911;-68
2024/01/25 21:35:25;;;;;;;;;;;;;;;21.98;44.16;96662.09;10477155;28;3024;-67
2024/01/25 21:40:25;;;;;;;;;;;;;;;21.94;45.68;96663.66;10499858;27;2990;-67
2024/01/25 21:45:26;;;;;;;;;;;;;;;21.95;45.40;96669.75;10474772;28;2898;-67
2024/01/25 21:50:26;;;;;;;;;;;;;;;21.92;45.16;96668.41;10471133;28;2996;-67
2024/01/25 21:55:26;;;;;;;;;;;;;;;21.84;45.91;96666.28;10472089;28;3244;-68
2024/01/25 22:00:27;;;;;;;;;;;;;;;21.79;45.07;96666.22;10468212;28;2943;-66
2024/01/25 22:05:27;;;;;;;;;;;;;;;21.77;46.23;96660.41;10469086;28;2911;-66
2024/01/25 22:10:27;;;;;;;;;;;;;;;21.74;46.51;96660.94;10469510;28;3009;-65
2024/01/25 22:15:28;;;;;;;;;;;;;;;21.74;45.44;96659.06;10466325;28;2972;-66
2024/01/25 22:20:28;;;;;;;;;;;;;;;21.69;46.72;96664.34;10474289;28;2945;-66
2024/01/25 22:25:29;;;;;;;;;;;;;;;21.67;46.00;96665.66;10471106;28;2915;-65
2024/01/25 22:30:29;;;;;;;;;;;;;;;21.66;46.35;96664.03;10454461;28;2774;-66
2024/01/25 22:35:29;;;;;;;;;;;;;;;21.62;45.92;96665.63;10471076;28;2929;-67
2024/01/25 22:40:30;;;;;;;;;;;;;;;21.61;45.59;96653.50;10472661;28;3098;-66
2024/01/25 22:45:31;;;;;;;;;;;;;;;21.63;46.62;96654.03;10470858;28;2863;-65
2024/01/25 22:50:31;;;;;;;;;;;;;;;21.59;46.06;96653.75;10465028;28;3185;-67
2024/01/25 22:55:31;;;;;;;;;;;;;;;21.63;44.34;96648.75;10468459;28;2921;-66
2024/01/25 23:00:32;;;;;;;;;;;;;;;21.61;45.70;96635.81;10465359;28;3158;-66
2024/01/25 23:05:33;;;;;;;;;;;;;;;21.59;46.38;96639.75;10472589;28;2857;-67
2024/01/25 23:10:33;;;;;;;;;;;;;;;21.61;44.97;96641.09;10472556;28;2951;-65
2024/01/25 23:15:33;;;;;;;;;;;;;;;21.61;44.97;96640.28;10503399;28;2927;-66
2024/01/25 23:20:33;;;;;;;;;;;;;;;21.57;44.97;96647.13;10466694;28;2818;-65
2024/01/25 23:25:34;;;;;;;;;;;;;;;21.61;45.32;96640.28;10465109;28;2926;-66
2024/01/25 23:30:34;;;;;;;;;;;;;;;21.59;46.18;96643.19;10467310;28;3008;-66
2024/01/25 23:35:34;;;;;;;;;;;;;;;21.59;45.70;96637.13;10462995;28;2814;-66
2024/01/25 23:40:37;;;;;;;;;;;;;;;21.58;44.49;96638.16;10468650;28;2961;-65
2024/01/25 23:45:37;;;;;;;;;;;;;;;21.57;45.99;96640.03;10468805;28;3278;-66
2024/01/25 23:50:37;;;;;;;;;;;;;;;21.56;45.77;96629.72;10474487;28;2858;-65
2024/01/25 23:55:40;;;;;;;;;;;;;;;21.57;46.72;96631.31;10478863;28;3045;-66
